sensor_id;sensor_type;location;lat;lon;timestamp;P1;durP1;ratioP1;P2;durP2;ratioP2
65597;SDS011;52267;51.984;20.956;2022-09-02T00:01:39;3.90;;;2.50;;
65597;SDS011;52267;51.984;20.956;2022-09-02T00:04:11;4.50;;;2.90;;
65597;SDS011;52267;51.984;20.956;2022-09-02T00:09:11;3.80;;;2.20;;
65597;SDS011;52267;51.984;20.956;2022-09-02T00:11:41;3.70;;;2.10;;
65597;SDS011;52267;51.984;20.956;2022-09-02T00:14:16;4.00;;;2.40;;
65597;SDS011;52267;51.984;20.956;2022-09-02T00:16:45;4.70;;;3.00;;
65597;SDS011;52267;51.984;20.956;2022-09-02T00:19:21;4.50;;;2.60;;
65597;SDS011;52267;51.984;20.956;2022-09-02T00:21:52;4.40;;;2.30;;
65597;SDS011;52267;51.984;20.956;2022-09-02T00:24:20;3.70;;;2.20;;
65597;SDS011;52267;51.984;20.956;2022-09-02T00:26:47;4.90;;;2.80;;
65597;SDS011;52267;51.984;20.956;2022-09-02T00:29:15;4.60;;;2.30;;
65597;SDS011;52267;51.984;20.956;2022-09-02T00:31:44;4.20;;;2.10;;
65597;SDS011;52267;51.984;20.956;2022-09-02T00:34:11;5.60;;;2.20;;
65597;SDS011;52267;51.984;20.956;2022-09-02T00:36:39;4.70;;;2.40;;
65597;SDS011;52267;51.984;20.956;2022-09-02T00:39:07;4.70;;;2.40;;
65597;SDS011;52267;51.984;20.956;2022-09-02T00:41:35;5.60;;;2.30;;
65597;SDS011;52267;51.984;20.956;2022-09-02T00:44:07;3.40;;;2.30;;
65597;SDS011;52267;51.984;20.956;2022-09-02T00:46:36;6.30;;;2.30;;
65597;SDS011;52267;51.984;20.956;2022-09-02T00:49:11;5.40;;;2.70;;
65597;SDS011;52267;51.984;20.956;2022-09-02T00:51:43;5.70;;;2.30;;
65597;SDS011;52267;51.984;20.956;2022-09-02T00:54:14;4.90;;;2.20;;
65597;SDS011;52267;51.984;20.956;2022-09-02T00:56:44;4.10;;;2.30;;
65597;SDS011;52267;51.984;20.956;2022-09-02T00:59:21;4.80;;;2.10;;
65597;SDS011;52267;51.984;20.956;2022-09-02T01:01:51;3.80;;;1.90;;
65597;SDS011;52267;51.984;20.956;2022-09-02T01:04:18;4.30;;;2.30;;
65597;SDS011;52267;51.984;20.956;2022-09-02T01:06:45;4.80;;;2.10;;
65597;SDS011;52267;51.984;20.956;2022-09-02T01:09:14;4.10;;;2.20;;
65597;SDS011;52267;51.984;20.956;2022-09-02T01:11:48;4.20;;;2.20;;
65597;SDS011;52267;51.984;20.956;2022-09-02T01:14:18;5.50;;;2.20;;
65597;SDS011;52267;51.984;20.956;2022-09-02T01:16:48;3.90;;;2.10;;
65597;SDS011;52267;51.984;20.956;2022-09-02T01:19:24;4.30;;;2.40;;
65597;SDS011;52267;51.984;20.956;2022-09-02T01:21:54;4.50;;;2.00;;
65597;SDS011;52267;51.984;20.956;2022-09-02T01:24:25;5.40;;;2.40;;
65597;SDS011;52267;51.984;20.956;2022-09-02T01:26:56;4.10;;;1.70;;
65597;SDS011;52267;51.984;20.956;2022-09-02T01:29:26;4.10;;;2.00;;
65597;SDS011;52267;51.984;20.956;2022-09-02T01:31:54;4.20;;;2.10;;
65597;SDS011;52267;51.984;20.956;2022-09-02T01:34:21;3.80;;;2.00;;
65597;SDS011;52267;51.984;20.956;2022-09-02T01:36:48;4.20;;;2.50;;
65597;SDS011;52267;51.984;20.956;2022-09-02T01:39:15;3.80;;;2.20;;
65597;SDS011;52267;51.984;20.956;2022-09-02T01:41:43;3.90;;;2.40;;
65597;SDS011;52267;51.984;20.956;2022-09-02T01:44:10;3.80;;;1.90;;
65597;SDS011;52267;51.984;20.956;2022-09-02T01:46:37;5.50;;;2.20;;
65597;SDS011;52267;51.984;20.956;2022-09-02T01:49:04;3.90;;;2.20;;
65597;SDS011;52267;51.984;20.956;2022-09-02T01:51:31;4.10;;;2.10;;
65597;SDS011;52267;51.984;20.956;2022-09-02T01:53:58;3.70;;;2.10;;
65597;SDS011;52267;51.984;20.956;2022-09-02T01:56:26;3.30;;;2.10;;
65597;SDS011;52267;51.984;20.956;2022-09-02T01:58:53;4.00;;;1.80;;
65597;SDS011;52267;51.984;20.956;2022-09-02T02:01:20;4.00;;;2.20;;
65597;SDS011;52267;51.984;20.956;2022-09-02T02:03:47;3.60;;;2.00;;
65597;SDS011;52267;51.984;20.956;2022-09-02T02:06:15;4.70;;;2.30;;
65597;SDS011;52267;51.984;20.956;2022-09-02T02:08:44;3.70;;;2.40;;
65597;SDS011;52267;51.984;20.956;2022-09-02T02:11:18;5.20;;;2.50;;
65597;SDS011;52267;51.984;20.956;2022-09-02T02:13:46;4.00;;;1.90;;
65597;SDS011;52267;51.984;20.956;2022-09-02T02:16:13;4.30;;;2.20;;
65597;SDS011;52267;51.984;20.956;2022-09-02T02:18:40;3.70;;;2.40;;
65597;SDS011;52267;51.984;20.956;2022-09-02T02:21:07;3.80;;;2.20;;
65597;SDS011;52267;51.984;20.956;2022-09-02T02:23:35;3.40;;;1.90;;
65597;SDS011;52267;51.984;20.956;2022-09-02T02:26:02;3.90;;;1.70;;
65597;SDS011;52267;51.984;20.956;2022-09-02T02:28:29;3.90;;;2.00;;
65597;SDS011;52267;51.984;20.956;2022-09-02T02:30:57;3.60;;;1.90;;
65597;SDS011;52267;51.984;20.956;2022-09-02T02:33:25;4.20;;;2.30;;
65597;SDS011;52267;51.984;20.956;2022-09-02T02:35:54;3.70;;;2.00;;
65597;SDS011;52267;51.984;20.956;2022-09-02T02:38:22;4.40;;;2.20;;
65597;SDS011;52267;51.984;20.956;2022-09-02T02:40:53;3.70;;;2.30;;
65597;SDS011;52267;51.984;20.956;2022-09-02T02:43:23;4.00;;;2.20;;
65597;SDS011;52267;51.984;20.956;2022-09-02T02:45:51;4.70;;;2.50;;
65597;SDS011;52267;51.984;20.956;2022-09-02T02:48:20;4.70;;;2.60;;
65597;SDS011;52267;51.984;20.956;2022-09-02T02:50:47;5.20;;;2.30;;
65597;SDS011;52267;51.984;20.956;2022-09-02T02:53:14;4.30;;;2.00;;
65597;SDS011;52267;51.984;20.956;2022-09-02T02:55:43;3.60;;;2.00;;
65597;SDS011;52267;51.984;20.956;2022-09-02T02:58:10;4.80;;;2.10;;
65597;SDS011;52267;51.984;20.956;2022-09-02T03:00:38;4.70;;;2.30;;
65597;SDS011;52267;51.984;20.956;2022-09-02T03:03:07;4.80;;;2.30;;
65597;SDS011;52267;51.984;20.956;2022-09-02T03:05:36;3.60;;;2.00;;
65597;SDS011;52267;51.984;20.956;2022-09-02T03:08:06;4.50;;;2.40;;
65597;SDS011;52267;51.984;20.956;2022-09-02T03:10:35;4.40;;;2.20;;
65597;SDS011;52267;51.984;20.956;2022-09-02T03:13:03;4.10;;;2.30;;
65597;SDS011;52267;51.984;20.956;2022-09-02T03:15:30;5.00;;;2.60;;
65597;SDS011;52267;51.984;20.956;2022-09-02T03:17:57;3.90;;;2.10;;
65597;SDS011;52267;51.984;20.956;2022-09-02T03:20:24;3.60;;;2.20;;
65597;SDS011;52267;51.984;20.956;2022-09-02T03:22:54;4.00;;;2.40;;
65597;SDS011;52267;51.984;20.956;2022-09-02T03:25:22;3.60;;;2.30;;
65597;SDS011;52267;51.984;20.956;2022-09-02T03:27:53;4.50;;;2.10;;
65597;SDS011;52267;51.984;20.956;2022-09-02T03:30:23;4.10;;;2.20;;
65597;SDS011;52267;51.984;20.956;2022-09-02T03:32:52;4.30;;;2.10;;
65597;SDS011;52267;51.984;20.956;2022-09-02T03:35:21;4.30;;;2.00;;
65597;SDS011;52267;51.984;20.956;2022-09-02T03:37:50;4.30;;;2.30;;
65597;SDS011;52267;51.984;20.956;2022-09-02T03:40:23;4.30;;;2.00;;
65597;SDS011;52267;51.984;20.956;2022-09-02T03:42:52;3.70;;;2.00;;
65597;SDS011;52267;51.984;20.956;2022-09-02T03:45:19;5.40;;;2.70;;
65597;SDS011;52267;51.984;20.956;2022-09-02T03:47:47;4.20;;;2.20;;
65597;SDS011;52267;51.984;20.956;2022-09-02T03:50:31;8.10;;;2.70;;
65597;SDS011;52267;51.984;20.956;2022-09-02T03:52:59;4.10;;;2.20;;
65597;SDS011;52267;51.984;20.956;2022-09-02T03:55:27;7.90;;;2.40;;
65597;SDS011;52267;51.984;20.956;2022-09-02T03:57:54;3.70;;;2.00;;
65597;SDS011;52267;51.984;20.956;2022-09-02T04:00:23;5.60;;;2.50;;
65597;SDS011;52267;51.984;20.956;2022-09-02T04:02:54;5.20;;;2.60;;
65597;SDS011;52267;51.984;20.956;2022-09-02T04:05:22;4.00;;;2.00;;
65597;SDS011;52267;51.984;20.956;2022-09-02T04:07:50;3.90;;;2.20;;
65597;SDS011;52267;51.984;20.956;2022-09-02T04:10:19;5.80;;;2.40;;
65597;SDS011;52267;51.984;20.956;2022-09-02T04:12:48;4.30;;;2.60;;
65597;SDS011;52267;51.984;20.956;2022-09-02T04:15:15;4.90;;;2.40;;
65597;SDS011;52267;51.984;20.956;2022-09-02T04:17:43;3.90;;;2.40;;
65597;SDS011;52267;51.984;20.956;2022-09-02T04:20:11;5.20;;;2.40;;
65597;SDS011;52267;51.984;20.956;2022-09-02T04:22:39;3.80;;;2.20;;
65597;SDS011;52267;51.984;20.956;2022-09-02T04:25:07;3.80;;;2.20;;
65597;SDS011;52267;51.984;20.956;2022-09-02T04:27:35;4.90;;;3.00;;
65597;SDS011;52267;51.984;20.956;2022-09-02T04:30:03;4.60;;;2.30;;
65597;SDS011;52267;51.984;20.956;2022-09-02T04:32:32;4.10;;;2.30;;
65597;SDS011;52267;51.984;20.956;2022-09-02T04:34:58;7.40;;;2.60;;
65597;SDS011;52267;51.984;20.956;2022-09-02T04:37:26;4.50;;;2.80;;
65597;SDS011;52267;51.984;20.956;2022-09-02T04:39:53;6.30;;;2.30;;
65597;SDS011;52267;51.984;20.956;2022-09-02T04:42:20;5.50;;;3.10;;
65597;SDS011;52267;51.984;20.956;2022-09-02T04:44:47;7.60;;;2.80;;
65597;SDS011;52267;51.984;20.956;2022-09-02T04:47:14;7.80;;;2.80;;
65597;SDS011;52267;51.984;20.956;2022-09-02T04:49:40;4.80;;;2.60;;
65597;SDS011;52267;51.984;20.956;2022-09-02T04:52:08;7.30;;;2.70;;
65597;SDS011;52267;51.984;20.956;2022-09-02T04:54:36;4.60;;;2.50;;
65597;SDS011;52267;51.984;20.956;2022-09-02T04:57:03;9.50;;;3.70;;
65597;SDS011;52267;51.984;20.956;2022-09-02T04:59:30;5.80;;;2.70;;
65597;SDS011;52267;51.984;20.956;2022-09-02T05:01:57;5.70;;;2.90;;
65597;SDS011;52267;51.984;20.956;2022-09-02T05:04:26;4.70;;;2.70;;
65597;SDS011;52267;51.984;20.956;2022-09-02T05:06:52;5.70;;;3.10;;
65597;SDS011;52267;51.984;20.956;2022-09-02T05:09:20;5.70;;;3.30;;
65597;SDS011;52267;51.984;20.956;2022-09-02T05:11:47;4.80;;;3.40;;
65597;SDS011;52267;51.984;20.956;2022-09-02T05:14:14;5.60;;;3.00;;
65597;SDS011;52267;51.984;20.956;2022-09-02T05:16:42;4.90;;;3.10;;
65597;SDS011;52267;51.984;20.956;2022-09-02T05:19:11;5.10;;;3.20;;
65597;SDS011;52267;51.984;20.956;2022-09-02T05:21:41;5.50;;;2.90;;
65597;SDS011;52267;51.984;20.956;2022-09-02T05:24:09;6.30;;;2.30;;
65597;SDS011;52267;51.984;20.956;2022-09-02T05:26:36;5.60;;;2.50;;
65597;SDS011;52267;51.984;20.956;2022-09-02T05:29:04;5.20;;;2.40;;
65597;SDS011;52267;51.984;20.956;2022-09-02T05:31:35;4.20;;;2.50;;
65597;SDS011;52267;51.984;20.956;2022-09-02T05:34:03;5.50;;;2.10;;
65597;SDS011;52267;51.984;20.956;2022-09-02T05:36:30;4.10;;;3.20;;
65597;SDS011;52267;51.984;20.956;2022-09-02T05:38:59;4.20;;;2.40;;
65597;SDS011;52267;51.984;20.956;2022-09-02T05:41:26;4.10;;;2.30;;
65597;SDS011;52267;51.984;20.956;2022-09-02T05:43:56;8.70;;;4.20;;
65597;SDS011;52267;51.984;20.956;2022-09-02T05:46:27;7.50;;;3.80;;
65597;SDS011;52267;51.984;20.956;2022-09-02T05:48:56;6.00;;;3.10;;
65597;SDS011;52267;51.984;20.956;2022-09-02T05:51:37;5.30;;;2.80;;
65597;SDS011;52267;51.984;20.956;2022-09-02T05:54:13;6.50;;;2.80;;
65597;SDS011;52267;51.984;20.956;2022-09-02T05:56:50;5.50;;;2.80;;
65597;SDS011;52267;51.984;20.956;2022-09-02T05:59:21;5.80;;;2.70;;
65597;SDS011;52267;51.984;20.956;2022-09-02T06:01:49;4.20;;;2.60;;
65597;SDS011;52267;51.984;20.956;2022-09-02T06:04:17;5.20;;;2.50;;
65597;SDS011;52267;51.984;20.956;2022-09-02T06:06:44;4.80;;;2.40;;
65597;SDS011;52267;51.984;20.956;2022-09-02T06:09:13;4.50;;;2.40;;
65597;SDS011;52267;51.984;20.956;2022-09-02T06:11:42;5.70;;;2.40;;
65597;SDS011;52267;51.984;20.956;2022-09-02T06:14:12;4.20;;;2.10;;
65597;SDS011;52267;51.984;20.956;2022-09-02T06:16:41;4.70;;;2.30;;
65597;SDS011;52267;51.984;20.956;2022-09-02T06:19:09;6.20;;;2.30;;
65597;SDS011;52267;51.984;20.956;2022-09-02T06:21:37;4.30;;;2.10;;
65597;SDS011;52267;51.984;20.956;2022-09-02T06:24:05;3.20;;;1.70;;
65597;SDS011;52267;51.984;20.956;2022-09-02T06:26:35;3.30;;;1.50;;
65597;SDS011;52267;51.984;20.956;2022-09-02T06:29:04;4.50;;;1.70;;
65597;SDS011;52267;51.984;20.956;2022-09-02T06:31:32;3.30;;;1.50;;
65597;SDS011;52267;51.984;20.956;2022-09-02T06:33:59;4.20;;;1.40;;
65597;SDS011;52267;51.984;20.956;2022-09-02T06:36:27;2.50;;;1.30;;
65597;SDS011;52267;51.984;20.956;2022-09-02T06:38:57;3.70;;;1.60;;
65597;SDS011;52267;51.984;20.956;2022-09-02T06:41:27;2.60;;;1.10;;
65597;SDS011;52267;51.984;20.956;2022-09-02T06:43:57;4.60;;;1.30;;
65597;SDS011;52267;51.984;20.956;2022-09-02T06:46:30;4.40;;;1.10;;
65597;SDS011;52267;51.984;20.956;2022-09-02T06:48:59;2.40;;;1.10;;
65597;SDS011;52267;51.984;20.956;2022-09-02T06:53:58;2.60;;;1.00;;
65597;SDS011;52267;51.984;20.956;2022-09-02T06:56:26;3.60;;;1.00;;
65597;SDS011;52267;51.984;20.956;2022-09-02T06:58:55;2.80;;;1.10;;
65597;SDS011;52267;51.984;20.956;2022-09-02T07:01:24;2.70;;;1.20;;
65597;SDS011;52267;51.984;20.956;2022-09-02T07:03:54;2.30;;;1.30;;
65597;SDS011;52267;51.984;20.956;2022-09-02T07:06:43;3.10;;;1.30;;
65597;SDS011;52267;51.984;20.956;2022-09-02T07:09:19;4.20;;;1.10;;
65597;SDS011;52267;51.984;20.956;2022-09-02T07:11:48;2.30;;;1.20;;
65597;SDS011;52267;51.984;20.956;2022-09-02T07:14:17;3.90;;;1.30;;
65597;SDS011;52267;51.984;20.956;2022-09-02T07:16:48;2.80;;;1.20;;
65597;SDS011;52267;51.984;20.956;2022-09-02T07:19:18;3.00;;;1.00;;
65597;SDS011;52267;51.984;20.956;2022-09-02T07:21:46;3.30;;;1.20;;
65597;SDS011;52267;51.984;20.956;2022-09-02T07:24:16;2.60;;;1.20;;
65597;SDS011;52267;51.984;20.956;2022-09-02T07:26:43;2.80;;;1.10;;
65597;SDS011;52267;51.984;20.956;2022-09-02T07:29:11;3.00;;;1.10;;
65597;SDS011;52267;51.984;20.956;2022-09-02T07:31:41;2.10;;;1.10;;
65597;SDS011;52267;51.984;20.956;2022-09-02T07:34:10;3.60;;;1.10;;
65597;SDS011;52267;51.984;20.956;2022-09-02T07:36:40;3.00;;;1.10;;
65597;SDS011;52267;51.984;20.956;2022-09-02T07:39:09;3.80;;;1.30;;
65597;SDS011;52267;51.984;20.956;2022-09-02T07:41:37;4.60;;;1.10;;
65597;SDS011;52267;51.984;20.956;2022-09-02T07:44:07;3.40;;;1.10;;
65597;SDS011;52267;51.984;20.956;2022-09-02T07:46:34;2.50;;;1.10;;
65597;SDS011;52267;51.984;20.956;2022-09-02T07:49:05;2.50;;;1.00;;
65597;SDS011;52267;51.984;20.956;2022-09-02T07:51:34;3.00;;;0.80;;
65597;SDS011;52267;51.984;20.956;2022-09-02T07:54:03;3.00;;;1.00;;
65597;SDS011;52267;51.984;20.956;2022-09-02T07:56:31;1.80;;;0.80;;
65597;SDS011;52267;51.984;20.956;2022-09-02T07:58:58;2.90;;;0.90;;
65597;SDS011;52267;51.984;20.956;2022-09-02T08:01:26;1.60;;;0.80;;
65597;SDS011;52267;51.984;20.956;2022-09-02T08:03:53;2.30;;;0.80;;
65597;SDS011;52267;51.984;20.956;2022-09-02T08:06:20;2.30;;;0.90;;
65597;SDS011;52267;51.984;20.956;2022-09-02T08:08:53;2.40;;;0.90;;
65597;SDS011;52267;51.984;20.956;2022-09-02T08:11:21;1.30;;;0.70;;
65597;SDS011;52267;51.984;20.956;2022-09-02T08:13:50;5.50;;;0.90;;
65597;SDS011;52267;51.984;20.956;2022-09-02T08:16:17;3.80;;;0.90;;
65597;SDS011;52267;51.984;20.956;2022-09-02T08:18:44;1.80;;;0.90;;
65597;SDS011;52267;51.984;20.956;2022-09-02T08:21:11;1.70;;;0.70;;
65597;SDS011;52267;51.984;20.956;2022-09-02T08:23:40;6.00;;;1.60;;
65597;SDS011;52267;51.984;20.956;2022-09-02T08:26:10;2.30;;;0.80;;
65597;SDS011;52267;51.984;20.956;2022-09-02T08:28:37;2.60;;;0.70;;
65597;SDS011;52267;51.984;20.956;2022-09-02T08:31:07;3.00;;;1.00;;
65597;SDS011;52267;51.984;20.956;2022-09-02T08:33:34;1.90;;;0.90;;
65597;SDS011;52267;51.984;20.956;2022-09-02T08:36:04;2.90;;;1.20;;
65597;SDS011;52267;51.984;20.956;2022-09-02T08:38:33;1.30;;;0.50;;
65597;SDS011;52267;51.984;20.956;2022-09-02T08:41:01;3.30;;;0.80;;
65597;SDS011;52267;51.984;20.956;2022-09-02T08:43:40;1.50;;;0.50;;
65597;SDS011;52267;51.984;20.956;2022-09-02T08:46:10;1.50;;;0.70;;
65597;SDS011;52267;51.984;20.956;2022-09-02T08:54:29;1.40;;;0.60;;
65597;SDS011;52267;51.984;20.956;2022-09-02T08:56:59;1.50;;;0.60;;
65597;SDS011;52267;51.984;20.956;2022-09-02T08:59:28;1.10;;;0.50;;
65597;SDS011;52267;51.984;20.956;2022-09-02T09:11:25;2.00;;;0.70;;
65597;SDS011;52267;51.984;20.956;2022-09-02T09:14:38;2.30;;;0.80;;
65597;SDS011;52267;51.984;20.956;2022-09-02T09:17:27;0.90;;;0.50;;
65597;SDS011;52267;51.984;20.956;2022-09-02T09:20:00;1.40;;;0.50;;
65597;SDS011;52267;51.984;20.956;2022-09-02T09:22:34;1.20;;;0.50;;
65597;SDS011;52267;51.984;20.956;2022-09-02T09:25:09;2.00;;;0.60;;
65597;SDS011;52267;51.984;20.956;2022-09-02T09:27:39;1.20;;;0.60;;
65597;SDS011;52267;51.984;20.956;2022-09-02T09:30:08;1.90;;;0.60;;
65597;SDS011;52267;51.984;20.956;2022-09-02T09:32:40;1.10;;;0.60;;
65597;SDS011;52267;51.984;20.956;2022-09-02T09:35:12;1.30;;;0.50;;
65597;SDS011;52267;51.984;20.956;2022-09-02T09:37:44;1.10;;;0.50;;
65597;SDS011;52267;51.984;20.956;2022-09-02T09:40:20;1.80;;;0.70;;
65597;SDS011;52267;51.984;20.956;2022-09-02T09:45:40;1.60;;;0.60;;
65597;SDS011;52267;51.984;20.956;2022-09-02T09:48:24;1.00;;;0.40;;
65597;SDS011;52267;51.984;20.956;2022-09-02T09:53:28;1.80;;;0.60;;
65597;SDS011;52267;51.984;20.956;2022-09-02T10:01:21;1.70;;;0.50;;
65597;SDS011;52267;51.984;20.956;2022-09-02T10:06:55;0.90;;;0.40;;
65597;SDS011;52267;51.984;20.956;2022-09-02T10:09:32;0.60;;;0.40;;
65597;SDS011;52267;51.984;20.956;2022-09-02T10:12:08;0.90;;;0.40;;
65597;SDS011;52267;51.984;20.956;2022-09-02T10:29:32;1.00;;;0.50;;
65597;SDS011;52267;51.984;20.956;2022-09-02T10:37:48;2.20;;;0.70;;
65597;SDS011;52267;51.984;20.956;2022-09-02T10:40:44;1.70;;;0.30;;
65597;SDS011;52267;51.984;20.956;2022-09-02T10:46:08;1.90;;;0.70;;
65597;SDS011;52267;51.984;20.956;2022-09-02T10:54:47;2.90;;;0.80;;
65597;SDS011;52267;51.984;20.956;2022-09-02T10:57:44;3.00;;;0.70;;
65597;SDS011;52267;51.984;20.956;2022-09-02T11:00:17;2.20;;;0.90;;
65597;SDS011;52267;51.984;20.956;2022-09-02T11:03:06;1.00;;;0.40;;
65597;SDS011;52267;51.984;20.956;2022-09-02T11:05:54;2.10;;;0.50;;
65597;SDS011;52267;51.984;20.956;2022-09-02T11:08:37;2.50;;;0.80;;
65597;SDS011;52267;51.984;20.956;2022-09-02T11:17:27;1.50;;;0.50;;
65597;SDS011;52267;51.984;20.956;2022-09-02T11:20:28;2.00;;;0.50;;
65597;SDS011;52267;51.984;20.956;2022-09-02T11:26:23;1.10;;;0.50;;
65597;SDS011;52267;51.984;20.956;2022-09-02T11:29:00;2.30;;;0.50;;
65597;SDS011;52267;51.984;20.956;2022-09-02T11:31:54;2.60;;;1.30;;
65597;SDS011;52267;51.984;20.956;2022-09-02T11:34:40;13.70;;;1.40;;
65597;SDS011;52267;51.984;20.956;2022-09-02T11:37:29;1.30;;;0.50;;
65597;SDS011;52267;51.984;20.956;2022-09-02T11:40:05;1.70;;;0.60;;
65597;SDS011;52267;51.984;20.956;2022-09-02T11:48:21;1.20;;;0.50;;
65597;SDS011;52267;51.984;20.956;2022-09-02T11:53:47;1.30;;;0.50;;
65597;SDS011;52267;51.984;20.956;2022-09-02T11:56:25;1.00;;;0.50;;
65597;SDS011;52267;51.984;20.956;2022-09-02T11:58:54;2.70;;;0.60;;
65597;SDS011;52267;51.984;20.956;2022-09-02T12:01:34;3.00;;;0.70;;
65597;SDS011;52267;51.984;20.956;2022-09-02T12:09:48;1.70;;;0.50;;
65597;SDS011;52267;51.984;20.956;2022-09-02T12:23:06;1.90;;;0.50;;
65597;SDS011;52267;51.984;20.956;2022-09-02T12:25:47;2.50;;;0.80;;
65597;SDS011;52267;51.984;20.956;2022-09-02T12:28:25;3.30;;;0.70;;
65597;SDS011;52267;51.984;20.956;2022-09-02T12:36:05;1.30;;;0.50;;
65597;SDS011;52267;51.984;20.956;2022-09-02T12:38:39;5.20;;;0.80;;
65597;SDS011;52267;51.984;20.956;2022-09-02T12:41:19;2.10;;;0.80;;
65597;SDS011;52267;51.984;20.956;2022-09-02T12:49:11;2.20;;;0.80;;
65597;SDS011;52267;51.984;20.956;2022-09-02T12:52:13;1.70;;;0.70;;
65597;SDS011;52267;51.984;20.956;2022-09-02T12:57:43;1.90;;;0.80;;
65597;SDS011;52267;51.984;20.956;2022-09-02T13:00:14;1.90;;;0.70;;
65597;SDS011;52267;51.984;20.956;2022-09-02T13:06:16;2.10;;;0.50;;
65597;SDS011;52267;51.984;20.956;2022-09-02T13:18:46;1.90;;;0.60;;
65597;SDS011;52267;51.984;20.956;2022-09-02T13:27:52;3.10;;;0.70;;
65597;SDS011;52267;51.984;20.956;2022-09-02T13:31:00;2.90;;;1.00;;
65597;SDS011;52267;51.984;20.956;2022-09-02T13:33:37;1.70;;;0.70;;
65597;SDS011;52267;51.984;20.956;2022-09-02T13:36:04;1.90;;;0.80;;
65597;SDS011;52267;51.984;20.956;2022-09-02T13:38:31;1.70;;;0.60;;
65597;SDS011;52267;51.984;20.956;2022-09-02T13:40:58;2.60;;;0.80;;
65597;SDS011;52267;51.984;20.956;2022-09-02T13:43:26;2.90;;;0.80;;
65597;SDS011;52267;51.984;20.956;2022-09-02T13:45:58;1.50;;;0.70;;
65597;SDS011;52267;51.984;20.956;2022-09-02T13:48:30;3.90;;;0.60;;
65597;SDS011;52267;51.984;20.956;2022-09-02T13:51:13;2.40;;;0.60;;
65597;SDS011;52267;51.984;20.956;2022-09-02T13:53:46;1.80;;;0.60;;
65597;SDS011;52267;51.984;20.956;2022-09-02T13:56:14;0.80;;;0.40;;
65597;SDS011;52267;51.984;20.956;2022-09-02T14:03:55;1.60;;;0.50;;
65597;SDS011;52267;51.984;20.956;2022-09-02T14:06:33;1.40;;;0.60;;
65597;SDS011;52267;51.984;20.956;2022-09-02T14:09:05;1.70;;;0.60;;
65597;SDS011;52267;51.984;20.956;2022-09-02T14:14:16;2.10;;;0.70;;
65597;SDS011;52267;51.984;20.956;2022-09-02T14:16:45;2.60;;;0.40;;
65597;SDS011;52267;51.984;20.956;2022-09-02T14:21:48;1.60;;;0.60;;
65597;SDS011;52267;51.984;20.956;2022-09-02T14:24:19;1.50;;;0.70;;
65597;SDS011;52267;51.984;20.956;2022-09-02T14:26:50;2.30;;;0.60;;
